createdAt,value
2018-05-31T00:00:13.623Z,3.50
2018-05-31T00:02:41.715Z,3.70
2018-05-31T00:05:09.643Z,3.93
2018-05-31T00:07:37.995Z,3.83
2018-05-31T00:10:06.092Z,3.53
2018-05-31T00:12:33.960Z,3.57
2018-05-31T00:15:02.028Z,3.47
2018-05-31T00:17:30.102Z,3.40
2018-05-31T00:19:58.172Z,3.90
2018-05-31T00:22:26.256Z,3.80
2018-05-31T00:24:54.267Z,3.90
2018-05-31T00:27:22.182Z,3.83
2018-05-31T00:29:50.456Z,3.47
2018-05-31T00:32:18.459Z,3.70
2018-05-31T00:34:46.434Z,3.37
2018-05-31T00:37:13.953Z,3.70
2018-05-31T00:39:42.047Z,3.57
2018-05-31T00:42:10.092Z,3.70
2018-05-31T00:44:38.369Z,3.63
2018-05-31T00:47:06.211Z,3.63
2018-05-31T00:49:34.309Z,3.90
2018-05-31T00:52:02.484Z,4.03
2018-05-31T00:54:30.352Z,3.87
2018-05-31T00:56:58.623Z,3.47
2018-05-31T00:59:26.625Z,3.33
2018-05-31T01:01:54.438Z,3.50
2018-05-31T01:04:22.734Z,3.60
2018-05-31T01:06:50.703Z,3.50
2018-05-31T01:09:18.428Z,3.47
2018-05-31T01:11:46.460Z,3.43
2018-05-31T01:14:14.643Z,3.90
2018-05-31T01:16:42.783Z,3.67
2018-05-31T01:19:10.650Z,3.73
2018-05-31T01:21:38.772Z,3.63
2018-05-31T01:24:06.691Z,3.80
2018-05-31T01:26:34.762Z,3.40
2018-05-31T01:29:03.142Z,3.80
2018-05-31T01:31:30.987Z,3.77
2018-05-31T01:33:58.873Z,3.43
2018-05-31T01:36:27.123Z,3.70
2018-05-31T01:38:55.014Z,3.90
2018-05-31T01:41:22.821Z,3.60
2018-05-31T01:43:50.985Z,3.57
2018-05-31T01:46:18.769Z,3.23
2018-05-31T01:48:46.583Z,3.67
2018-05-31T01:51:14.666Z,3.50
2018-05-31T01:53:42.524Z,3.70
2018-05-31T01:56:10.513Z,4.30
2018-05-31T01:58:38.973Z,4.13
2018-05-31T02:01:07.201Z,3.53
2018-05-31T02:03:35.079Z,3.73
2018-05-31T02:06:03.389Z,3.60
2018-05-31T02:08:31.565Z,3.80
2018-05-31T02:10:59.441Z,3.30
2018-05-31T02:13:27.503Z,3.83
2018-05-31T02:15:55.677Z,3.50
2018-05-31T02:18:23.539Z,3.60
2018-05-31T02:20:51.612Z,3.60
2018-05-31T02:23:19.787Z,3.73
2018-05-31T02:25:47.568Z,3.50
2018-05-31T02:28:15.727Z,3.70
2018-05-31T02:30:43.854Z,3.63
2018-05-31T02:33:11.827Z,3.87
2018-05-31T02:35:40.144Z,3.70
2018-05-31T02:38:08.221Z,4.10
2018-05-31T02:40:36.084Z,4.30
2018-05-31T02:43:04.154Z,3.80
2018-05-31T02:45:32.144Z,4.03
2018-05-31T02:48:00.107Z,3.80
2018-05-31T02:50:28.261Z,4.03
2018-05-31T02:52:56.188Z,4.00
2018-05-31T02:55:24.203Z,4.10
2018-05-31T02:57:52.376Z,3.90
2018-05-31T03:00:20.185Z,4.00
2018-05-31T03:02:48.315Z,4.17
2018-05-31T03:05:16.415Z,3.77
2018-05-31T03:07:44.683Z,4.00
2018-05-31T03:10:12.677Z,4.17
2018-05-31T03:12:40.798Z,4.00
2018-05-31T03:15:08.667Z,4.30
2018-05-31T03:17:36.666Z,4.17
2018-05-31T03:20:04.920Z,4.00
2018-05-31T03:22:32.778Z,4.47
2018-05-31T03:25:00.703Z,4.30
2018-05-31T03:27:28.694Z,4.60
2018-05-31T03:29:56.582Z,4.27
2018-05-31T03:32:24.752Z,4.20
2018-05-31T03:34:53.133Z,4.03
2018-05-31T03:37:20.999Z,4.50
2018-05-31T03:39:48.791Z,4.50
2018-05-31T03:42:17.365Z,4.57
2018-05-31T03:44:45.460Z,4.50
2018-05-31T03:47:13.348Z,4.20
2018-05-31T03:49:41.449Z,4.13
2018-05-31T03:52:09.329Z,4.23
2018-05-31T03:54:37.186Z,4.10
2018-05-31T03:57:05.596Z,4.20
2018-05-31T03:59:33.434Z,4.40
2018-05-31T04:02:01.433Z,4.07
2018-05-31T04:04:29.713Z,4.10
2018-05-31T04:06:57.875Z,4.30
2018-05-31T04:09:26.028Z,4.77
2018-05-31T04:11:54.045Z,4.30
2018-05-31T04:14:22.088Z,4.20
2018-05-31T04:16:50.238Z,4.53
2018-05-31T04:19:18.313Z,4.73
2018-05-31T04:21:47.443Z,4.63
2018-05-31T04:24:15.189Z,4.27
2018-05-31T04:26:43.258Z,4.67
2018-05-31T04:29:11.541Z,4.10
2018-05-31T04:31:39.540Z,4.60
2018-05-31T04:34:07.612Z,4.10
2018-05-31T04:36:36.058Z,3.83
2018-05-31T04:39:04.166Z,4.50
2018-05-31T04:41:32.179Z,4.37
2018-05-31T04:43:59.893Z,4.07
2018-05-31T04:46:28.003Z,3.83
2018-05-31T04:48:55.906Z,4.17
2018-05-31T04:51:23.731Z,3.90
2018-05-31T04:53:51.843Z,4.50
2018-05-31T04:56:19.913Z,4.50
2018-05-31T04:58:47.654Z,3.80
2018-05-31T05:01:15.924Z,3.97
2018-05-31T05:03:43.984Z,4.20
2018-05-31T05:06:11.727Z,4.30
2018-05-31T05:08:40.191Z,4.13
2018-05-31T05:11:08.569Z,4.10
2018-05-31T05:13:36.325Z,3.73
2018-05-31T05:16:04.460Z,3.90
2018-05-31T05:18:32.444Z,3.47
2018-05-31T05:21:00.258Z,4.20
2018-05-31T05:23:28.139Z,4.23
2018-05-31T05:25:56.437Z,3.90
2018-05-31T05:28:24.508Z,3.77
2018-05-31T05:30:52.309Z,3.57
2018-05-31T05:33:20.388Z,3.60
2018-05-31T05:35:48.138Z,3.40
2018-05-31T05:38:16.073Z,3.57
2018-05-31T05:40:44.557Z,3.50
2018-05-31T05:43:12.577Z,3.40
2018-05-31T05:45:40.391Z,3.73
2018-05-31T05:48:08.508Z,3.40
2018-05-31T05:50:36.636Z,3.57
2018-05-31T05:53:04.500Z,3.40
2018-05-31T05:55:32.578Z,3.40
2018-05-31T05:58:00.645Z,3.10
2018-05-31T06:00:28.511Z,2.90
2018-05-31T06:02:56.584Z,3.30
2018-05-31T06:05:24.862Z,3.50
2018-05-31T06:07:52.659Z,3.10
2018-05-31T06:10:20.757Z,3.10
2018-05-31T06:12:48.930Z,3.20
2018-05-31T06:15:16.961Z,2.90
2018-05-31T06:17:44.952Z,3.00
2018-05-31T06:20:12.840Z,2.80
2018-05-31T06:22:40.972Z,3.37
2018-05-31T06:25:09.021Z,2.93
2018-05-31T06:27:36.827Z,2.97
2018-05-31T06:30:04.985Z,2.87
2018-05-31T06:32:33.129Z,2.80
2018-05-31T06:35:01.104Z,2.80
2018-05-31T06:37:29.181Z,2.97
2018-05-31T06:39:57.348Z,2.90
2018-05-31T06:42:25.177Z,2.97
2018-05-31T06:44:53.283Z,3.20
2018-05-31T06:47:21.583Z,2.80
2018-05-31T06:49:49.423Z,2.67
2018-05-31T06:52:17.223Z,2.90
2018-05-31T06:54:45.418Z,3.03
2018-05-31T06:57:13.329Z,3.03
2018-05-31T06:59:41.407Z,3.73
2018-05-31T07:02:09.677Z,3.50
2018-05-31T07:04:37.547Z,3.10
2018-05-31T07:07:05.514Z,2.87
2018-05-31T07:09:33.808Z,3.30
2018-05-31T07:12:01.630Z,3.20
2018-05-31T07:14:29.825Z,2.80
2018-05-31T07:16:58.140Z,2.80
2018-05-31T07:19:26.290Z,3.40
2018-05-31T07:21:54.145Z,2.87
2018-05-31T07:24:22.410Z,2.77
2018-05-31T07:26:50.390Z,3.57
2018-05-31T07:29:18.267Z,3.23
2018-05-31T07:31:46.173Z,2.93
2018-05-31T07:34:14.293Z,3.30
2018-05-31T07:36:42.143Z,2.80
2018-05-31T07:39:10.288Z,2.97
2018-05-31T07:41:38.176Z,2.83
2018-05-31T07:44:06.064Z,2.83
2018-05-31T07:46:34.148Z,2.50
2018-05-31T07:49:02.108Z,2.60
2018-05-31T07:51:30.215Z,2.53
2018-05-31T07:53:58.354Z,2.53
2018-05-31T07:56:26.202Z,2.37
2018-05-31T07:58:54.084Z,3.53
2018-05-31T08:01:22.255Z,3.40
2018-05-31T08:03:50.127Z,2.60
2018-05-31T08:06:18.264Z,2.60
2018-05-31T08:08:46.612Z,2.97
2018-05-31T08:11:14.598Z,2.63
2018-05-31T08:13:42.393Z,2.67
2018-05-31T08:16:11.094Z,2.40
2018-05-31T08:18:38.930Z,2.70
2018-05-31T08:21:06.773Z,2.50
2018-05-31T08:23:35.023Z,2.23
2018-05-31T08:26:02.870Z,2.40
2018-05-31T08:28:30.739Z,2.50
2018-05-31T08:30:58.939Z,2.57
2018-05-31T08:33:26.907Z,2.47
2018-05-31T08:35:54.743Z,2.40
2018-05-31T08:38:23.097Z,2.43
2018-05-31T08:40:51.485Z,2.33
2018-05-31T08:43:19.366Z,3.57
2018-05-31T08:45:47.571Z,2.63
2018-05-31T08:48:15.743Z,2.73
2018-05-31T08:50:43.579Z,3.07
2018-05-31T08:53:11.861Z,2.47
2018-05-31T08:55:40.037Z,3.13
2018-05-31T08:58:08.053Z,2.57
2018-05-31T09:00:36.183Z,2.50
2018-05-31T09:03:04.102Z,2.17
2018-05-31T09:05:32.198Z,2.10
2018-05-31T09:08:00.184Z,2.30
2018-05-31T09:10:28.049Z,2.37
2018-05-31T09:12:56.224Z,2.70
2018-05-31T09:15:24.219Z,2.00
2018-05-31T09:17:52.299Z,2.00
2018-05-31T09:20:21.166Z,2.30
2018-05-31T09:22:49.224Z,3.40
2018-05-31T09:25:17.067Z,2.70
2018-05-31T09:27:45.262Z,3.73
2018-05-31T09:30:13.625Z,2.40
2018-05-31T09:32:41.497Z,2.60
2018-05-31T09:35:09.326Z,3.73
2018-05-31T09:37:37.561Z,2.80
2018-05-31T09:40:05.305Z,2.40
2018-05-31T09:42:33.179Z,2.57
2018-05-31T09:45:01.282Z,2.33
2018-05-31T09:47:29.116Z,2.50
2018-05-31T09:49:56.981Z,2.03
2018-05-31T09:52:25.369Z,1.70
2018-05-31T09:54:53.128Z,1.63
2018-05-31T09:57:20.894Z,2.40
2018-05-31T09:59:49.042Z,1.73
2018-05-31T10:02:17.270Z,1.50
2018-05-31T10:04:45.115Z,2.17
2018-05-31T10:07:13.276Z,1.73
2018-05-31T10:09:42.276Z,1.40
2018-05-31T10:12:10.132Z,1.40
2018-05-31T10:14:38.413Z,1.20
2018-05-31T10:17:06.387Z,1.50
2018-05-31T10:19:34.658Z,1.40
2018-05-31T10:22:02.829Z,1.40
2018-05-31T10:24:30.803Z,1.30
2018-05-31T10:26:58.807Z,1.30
2018-05-31T10:29:27.197Z,1.30
2018-05-31T10:31:55.009Z,1.40
2018-05-31T10:34:23.050Z,1.47
2018-05-31T10:36:51.256Z,1.50
2018-05-31T10:39:19.282Z,1.13
2018-05-31T10:41:47.213Z,1.20
2018-05-31T10:44:15.381Z,1.50
2018-05-31T10:46:43.538Z,1.20
2018-05-31T10:49:11.612Z,1.30
2018-05-31T10:51:39.669Z,1.40
2018-05-31T10:54:07.470Z,1.23
2018-05-31T10:56:35.622Z,1.60
2018-05-31T10:59:03.795Z,1.40
2018-05-31T11:01:31.662Z,1.40
2018-05-31T11:03:59.768Z,1.53
2018-05-31T11:06:28.032Z,1.50
2018-05-31T11:08:55.896Z,1.60
2018-05-31T11:11:24.596Z,1.20
2018-05-31T11:13:54.272Z,1.30
2018-05-31T11:16:22.239Z,1.10
2018-05-31T11:18:50.048Z,1.23
2018-05-31T11:21:18.611Z,1.30
2018-05-31T11:23:46.454Z,1.30
2018-05-31T11:26:14.318Z,1.27
2018-05-31T11:28:42.701Z,1.00
2018-05-31T11:31:10.535Z,1.10
2018-05-31T11:33:38.473Z,1.00
2018-05-31T11:36:06.712Z,1.20
2018-05-31T11:38:34.719Z,1.00
2018-05-31T11:41:02.649Z,1.10
2018-05-31T11:43:30.820Z,1.10
2018-05-31T11:45:58.948Z,1.30
2018-05-31T11:48:26.938Z,1.10
2018-05-31T11:50:54.920Z,1.00
2018-05-31T11:53:23.105Z,1.13
2018-05-31T11:55:50.972Z,1.13
2018-05-31T11:58:19.041Z,0.93
2018-05-31T12:00:47.120Z,1.97
2018-05-31T12:03:15.898Z,1.10
2018-05-31T12:05:43.968Z,1.07
2018-05-31T12:08:11.994Z,0.83
2018-05-31T12:10:39.845Z,0.80
2018-05-31T12:13:07.979Z,0.97
2018-05-31T12:15:36.152Z,1.30
2018-05-31T12:18:04.000Z,1.00
2018-05-31T12:20:32.089Z,1.10
2018-05-31T12:23:00.778Z,1.10
2018-05-31T12:25:28.771Z,1.07
2018-05-31T12:27:56.716Z,1.20
2018-05-31T12:30:24.734Z,1.10
2018-05-31T12:32:52.680Z,1.20
2018-05-31T12:35:21.670Z,1.20
2018-05-31T12:37:50.137Z,3.60
2018-05-31T12:40:18.269Z,4.90
2018-05-31T12:42:46.471Z,1.10
2018-05-31T12:45:14.440Z,0.90
2018-05-31T12:47:42.510Z,0.90
2018-05-31T12:50:10.668Z,1.20
2018-05-31T12:52:38.653Z,0.90
2018-05-31T12:55:06.637Z,1.10
2018-05-31T12:57:34.718Z,0.83
2018-05-31T13:00:02.713Z,0.97
2018-05-31T13:02:30.842Z,0.83
2018-05-31T13:04:59.010Z,0.90
2018-05-31T13:07:27.283Z,0.93
2018-05-31T13:09:55.423Z,1.10
2018-05-31T13:12:23.663Z,1.00
2018-05-31T13:14:51.447Z,0.80
2018-05-31T13:17:19.262Z,1.37
2018-05-31T13:19:47.486Z,1.20
2018-05-31T13:22:15.301Z,1.03
2018-05-31T13:24:43.544Z,0.80
2018-05-31T13:27:11.689Z,0.90
2018-05-31T13:29:39.767Z,1.00
2018-05-31T13:32:07.597Z,0.90
2018-05-31T13:34:35.974Z,1.00
2018-05-31T13:37:04.297Z,0.90
2018-05-31T13:39:32.111Z,1.00
2018-05-31T13:42:00.287Z,1.17
2018-05-31T13:44:28.437Z,0.90
2018-05-31T13:46:57.247Z,1.10
2018-05-31T13:49:25.173Z,1.10
2018-05-31T13:51:53.201Z,1.00
2018-05-31T13:54:21.053Z,0.87
2018-05-31T13:56:49.227Z,1.20
2018-05-31T13:59:17.233Z,3.20
2018-05-31T14:01:45.263Z,0.83
2018-05-31T14:04:13.367Z,0.90
2018-05-31T14:06:49.081Z,3.40
2018-05-31T14:09:17.074Z,0.73
2018-05-31T14:11:44.917Z,0.80
2018-05-31T14:14:12.914Z,1.10
2018-05-31T14:16:40.956Z,1.20
2018-05-31T14:19:08.798Z,1.00
2018-05-31T14:21:36.841Z,1.03
2018-05-31T14:24:04.864Z,1.50
2018-05-31T14:26:32.894Z,7.37
2018-05-31T14:29:01.217Z,1.00
2018-05-31T14:31:29.340Z,0.90
2018-05-31T14:33:57.249Z,1.80
2018-05-31T14:36:25.425Z,0.80
2018-05-31T14:38:54.215Z,0.97
2018-05-31T14:41:22.144Z,1.00
2018-05-31T14:43:51.089Z,0.93
2018-05-31T14:46:19.143Z,0.77
2018-05-31T14:48:47.940Z,1.10
2018-05-31T14:51:15.821Z,1.17
2018-05-31T14:53:43.782Z,1.00
2018-05-31T14:56:11.633Z,1.33
2018-05-31T14:58:39.602Z,1.00
2018-05-31T15:01:07.717Z,0.90
2018-05-31T15:03:35.492Z,1.20
2018-05-31T15:06:03.642Z,0.73
2018-05-31T15:08:31.682Z,1.17
2018-05-31T15:10:59.492Z,1.23
2018-05-31T15:13:27.891Z,1.00
2018-05-31T15:15:56.084Z,1.03
2018-05-31T15:18:24.174Z,1.10
2018-05-31T15:20:52.219Z,1.40
2018-05-31T15:23:21.918Z,1.00
2018-05-31T15:25:49.671Z,38.70
2018-05-31T15:28:18.200Z,48.57
2018-05-31T15:30:46.275Z,19.13
2018-05-31T15:33:14.177Z,0.90
2018-05-31T15:35:42.310Z,29.83
2018-05-31T15:38:10.686Z,9.03
2018-05-31T15:40:38.556Z,1.30
2018-05-31T15:43:06.553Z,3.20
2018-05-31T15:45:35.536Z,1.10
2018-05-31T15:48:03.383Z,2.10
2018-05-31T15:50:32.373Z,8.47
2018-05-31T15:53:00.555Z,8.03
2018-05-31T15:55:28.424Z,7.83
2018-05-31T15:57:56.412Z,1.00
2018-05-31T16:00:24.513Z,1.60
2018-05-31T16:02:52.269Z,1.60
2018-05-31T16:05:20.395Z,1.90
2018-05-31T16:07:48.467Z,2.90
2018-05-31T16:10:16.440Z,1.27
2018-05-31T16:12:44.561Z,1.20
2018-05-31T16:15:12.794Z,1.30
2018-05-31T16:17:41.676Z,1.77
2018-05-31T16:20:09.678Z,2.00
2018-05-31T16:22:38.731Z,2.03
2018-05-31T16:25:06.807Z,1.83
2018-05-31T16:27:35.392Z,2.00
2018-05-31T16:30:04.006Z,2.63
2018-05-31T16:32:31.788Z,1.63
2018-05-31T16:35:00.044Z,2.07
2018-05-31T16:37:28.290Z,2.33
2018-05-31T16:39:56.151Z,1.87
2018-05-31T16:42:24.225Z,2.37
2018-05-31T16:44:52.332Z,2.20
2018-05-31T16:47:20.676Z,2.63
2018-05-31T16:49:49.054Z,1.73
2018-05-31T16:52:18.013Z,1.33
2018-05-31T16:54:45.918Z,1.97
2018-05-31T16:57:13.898Z,1.70
2018-05-31T16:59:42.184Z,1.90
2018-05-31T17:02:10.054Z,2.40
2018-05-31T17:04:37.848Z,1.93
2018-05-31T17:07:06.093Z,1.30
2018-05-31T17:09:33.827Z,2.40
2018-05-31T17:12:01.618Z,1.90
2018-05-31T17:14:29.977Z,1.40
2018-05-31T17:16:57.836Z,1.00
2018-05-31T17:19:25.802Z,1.50
2018-05-31T17:21:53.978Z,1.93
2018-05-31T17:24:21.918Z,1.40
2018-05-31T17:26:49.815Z,1.50
2018-05-31T17:29:18.068Z,1.50
2018-05-31T17:31:46.211Z,1.63
2018-05-31T17:34:14.096Z,4.23
2018-05-31T17:36:42.228Z,2.50
2018-05-31T17:39:10.373Z,1.80
2018-05-31T17:41:38.240Z,2.40
2018-05-31T17:44:06.519Z,1.23
2018-05-31T17:46:38.855Z,1.40
2018-05-31T17:49:06.864Z,1.30
2018-05-31T17:51:35.029Z,1.30
2018-05-31T17:54:04.124Z,1.20
2018-05-31T17:56:32.003Z,1.40
2018-05-31T17:59:00.166Z,1.40
2018-05-31T18:01:28.249Z,1.27
2018-05-31T18:03:56.207Z,1.27
2018-05-31T18:06:24.492Z,1.20
2018-05-31T18:08:52.624Z,1.30
2018-05-31T18:11:20.734Z,1.00
2018-05-31T18:13:48.927Z,1.10
2018-05-31T18:16:16.867Z,1.27
2018-05-31T18:18:44.643Z,0.90
2018-05-31T18:21:13.013Z,2.73
2018-05-31T18:23:40.936Z,3.13
2018-05-31T18:26:08.914Z,5.63
2018-05-31T18:28:36.806Z,3.50
2018-05-31T18:31:05.100Z,1.20
2018-05-31T18:33:33.060Z,1.20
2018-05-31T18:36:01.115Z,1.20
2018-05-31T18:38:29.206Z,1.40
2018-05-31T18:40:57.068Z,1.10
2018-05-31T18:43:26.418Z,1.10
2018-05-31T18:45:54.430Z,1.20
2018-05-31T18:48:22.272Z,1.20
2018-05-31T18:50:50.303Z,1.03
2018-05-31T18:53:18.433Z,1.17
2018-05-31T18:55:46.316Z,1.07
2018-05-31T18:58:14.371Z,2.00
2018-05-31T19:00:42.458Z,1.10
2018-05-31T19:03:10.480Z,0.90
2018-05-31T19:05:38.495Z,1.33
2018-05-31T19:08:06.728Z,1.10
2018-05-31T19:10:34.577Z,1.00
2018-05-31T19:13:08.014Z,1.30
2018-05-31T19:15:36.323Z,1.30
2018-05-31T19:18:04.641Z,1.30
2018-05-31T19:20:32.864Z,1.33
2018-05-31T19:23:01.515Z,1.80
2018-05-31T19:25:29.827Z,1.50
2018-05-31T19:27:58.166Z,1.20
2018-05-31T19:30:31.818Z,1.03
2018-05-31T19:32:59.762Z,1.10
2018-05-31T19:35:33.584Z,1.13
2018-05-31T19:38:01.840Z,1.10
2018-05-31T19:40:29.934Z,1.07
2018-05-31T19:43:03.540Z,1.90
2018-05-31T19:45:31.674Z,1.00
2018-05-31T19:47:59.834Z,1.03
2018-05-31T19:50:27.873Z,1.60
2018-05-31T19:53:01.554Z,1.30
2018-05-31T19:55:29.767Z,1.10
2018-05-31T19:58:03.121Z,1.10
2018-05-31T20:00:36.517Z,1.27
2018-05-31T20:03:09.969Z,1.30
2018-05-31T20:05:38.261Z,1.00
2018-05-31T20:08:05.981Z,1.20
2018-05-31T20:10:33.935Z,1.30
2018-05-31T20:13:02.048Z,1.60
2018-05-31T20:15:29.918Z,1.23
2018-05-31T20:17:57.627Z,1.23
2018-05-31T20:20:25.804Z,1.20
2018-05-31T20:22:53.636Z,1.10
2018-05-31T20:25:21.364Z,1.20
2018-05-31T20:27:49.626Z,1.10
2018-05-31T20:30:17.374Z,1.10
2018-05-31T20:32:45.155Z,1.30
2018-05-31T20:35:13.423Z,1.40
2018-05-31T20:37:41.573Z,1.10
2018-05-31T20:40:09.422Z,1.67
2018-05-31T20:42:37.625Z,1.33
2018-05-31T20:45:05.924Z,1.10
2018-05-31T20:47:34.095Z,0.93
2018-05-31T20:50:02.099Z,1.20
2018-05-31T20:52:30.193Z,1.10
2018-05-31T20:54:58.008Z,1.20
2018-05-31T20:57:26.084Z,0.90
2018-05-31T20:59:54.022Z,1.07
2018-05-31T21:02:21.835Z,1.10
2018-05-31T21:04:50.781Z,1.10
2018-05-31T21:07:18.802Z,1.10
2018-05-31T21:09:46.653Z,1.00
2018-05-31T21:12:14.692Z,1.00
2018-05-31T21:14:42.853Z,1.00
2018-05-31T21:17:10.835Z,1.00
2018-05-31T21:19:39.045Z,1.00
2018-05-31T21:22:07.173Z,1.10
2018-05-31T21:24:34.954Z,1.10
2018-05-31T21:27:03.162Z,1.00
2018-05-31T21:29:31.218Z,1.00
2018-05-31T21:31:59.255Z,1.10
2018-05-31T21:34:27.142Z,0.80
2018-05-31T21:36:54.983Z,1.20
2018-05-31T21:39:23.225Z,1.10
2018-05-31T21:41:51.381Z,1.00
2018-05-31T21:44:19.243Z,0.80
2018-05-31T21:46:47.464Z,0.90
2018-05-31T21:49:15.536Z,1.77
2018-05-31T21:51:43.417Z,0.90
2018-05-31T21:54:11.710Z,1.00
2018-05-31T21:56:39.708Z,1.13
2018-05-31T21:59:07.460Z,1.10
2018-05-31T22:01:35.895Z,0.80
2018-05-31T22:04:04.212Z,0.80
2018-05-31T22:06:32.035Z,2.83
2018-05-31T22:08:59.899Z,1.30
2018-05-31T22:11:28.363Z,2.90
2018-05-31T22:13:56.250Z,1.00
2018-05-31T22:16:24.002Z,0.97
2018-05-31T22:18:52.535Z,0.77
2018-05-31T22:21:20.531Z,1.10
2018-05-31T22:23:48.535Z,0.80
2018-05-31T22:26:17.682Z,0.80
2018-05-31T22:28:45.806Z,1.20
2018-05-31T22:31:13.824Z,1.00
2018-05-31T22:33:42.356Z,1.00
2018-05-31T22:36:10.202Z,1.03
2018-05-31T22:38:38.070Z,1.00
2018-05-31T22:41:06.820Z,0.90
2018-05-31T22:43:34.589Z,1.00
2018-05-31T22:46:03.450Z,0.80
2018-05-31T22:48:31.980Z,0.80
2018-05-31T22:51:00.188Z,1.00
2018-05-31T22:53:28.025Z,1.33
2018-05-31T22:55:56.045Z,2.10
2018-05-31T22:58:24.125Z,1.10
2018-05-31T23:00:52.106Z,0.87
2018-05-31T23:03:20.234Z,0.80
2018-05-31T23:05:48.564Z,0.87
2018-05-31T23:08:17.010Z,1.30
2018-05-31T23:10:45.136Z,0.70
2018-05-31T23:13:12.923Z,0.70
2018-05-31T23:15:41.194Z,0.80
2018-05-31T23:18:09.237Z,0.70
2018-05-31T23:20:37.140Z,0.80
2018-05-31T23:23:05.172Z,0.70
2018-05-31T23:25:33.281Z,0.80
2018-05-31T23:28:01.151Z,0.73
2018-05-31T23:30:29.322Z,0.70
2018-05-31T23:32:57.545Z,0.87
2018-05-31T23:35:25.430Z,0.80
2018-05-31T23:37:53.331Z,1.10
2018-05-31T23:40:21.911Z,0.80
2018-05-31T23:42:50.107Z,0.90
2018-05-31T23:45:18.061Z,0.70
2018-05-31T23:47:46.078Z,0.80
2018-05-31T23:50:13.923Z,0.90
2018-05-31T23:52:41.787Z,0.80
2018-05-31T23:55:10.253Z,0.70
2018-05-31T23:57:38.161Z,0.90
